Time;durP1;ratioP1;P1;durP2;ratioP2;P2;SDS_P1;SDS_P2;PMS_P1;PMS_P2;Temp;Humidity;BMP_temperature;BMP_pressure;BME280_temperature;BME280_humidity;BME280_pressure;Samples;Min_cycle;Max_cycle;Signal;HPM_P1;HPM_P2
2024/02/24 00:00:15;;;;;;;11.07;6.80;;;;;;;8.65;100.00;100971.44;2088143;28;20304;-69
2024/02/24 00:01:17;;;;;;;11.27;6.10;;;;;;;8.67;100.00;100969.84;2088250;28;20222;-69
2024/02/24 00:02:18;;;;;;;11.15;6.28;;;;;;;8.44;100.00;100944.03;2088200;28;20204;-69
2024/02/24 00:03:18;;;;;;;7.97;4.70;;;;;;;8.55;100.00;100961.28;2087382;28;20660;-69
2024/02/24 00:04:19;;;;;;;7.60;4.83;;;;;;;8.52;100.00;100965.69;2087216;28;20691;-69
2024/02/24 00:05:19;;;;;;;10.77;6.27;;;;;;;8.49;100.00;100958.19;2095682;28;20251;-69
2024/02/24 00:06:20;;;;;;;11.17;5.20;;;;;;;8.36;100.00;100948.84;2096384;28;20183;-69
2024/02/24 00:07:20;;;;;;;9.07;5.47;;;;;;;8.58;100.00;100966.00;2087617;28;20202;-69
2024/02/24 00:08:21;;;;;;;9.00;6.07;;;;;;;8.55;100.00;100961.28;2088188;28;20245;-70
2024/02/24 00:09:21;;;;;;;10.77;5.70;;;;;;;8.48;100.00;100961.38;2088344;28;20194;-69
2024/02/24 00:10:22;;;;;;;11.13;5.27;;;;;;;8.28;100.00;100947.34;2087888;28;20246;-69
2024/02/24 00:11:23;;;;;;;10.40;5.47;;;;;;;8.35;100.00;100976.88;2088111;28;20628;-69
2024/02/24 00:12:23;;;;;;;8.03;5.33;;;;;;;8.25;100.00;100961.19;2088014;28;20187;-69
2024/02/24 00:13:24;;;;;;;9.03;5.53;;;;;;;8.31;100.00;100974.13;2087132;28;20195;-69
2024/02/24 00:14:24;;;;;;;11.97;5.70;;;;;;;8.33;100.00;100968.22;2088041;28;20761;-69
2024/02/24 00:15:25;;;;;;;11.67;6.70;;;;;;;8.32;100.00;100966.66;2088194;28;20188;-69
2024/02/24 00:16:25;;;;;;;9.80;6.03;;;;;;;8.36;100.00;100956.38;2088043;28;20195;-69
2024/02/24 00:17:26;;;;;;;11.43;5.87;;;;;;;8.35;100.00;100949.28;2088056;28;20191;-69
2024/02/24 00:18:26;;;;;;;9.23;5.97;;;;;;;8.34;100.00;100956.75;2088081;28;20190;-69
2024/02/24 00:19:27;;;;;;;14.30;5.97;;;;;;;8.40;100.00;100948.84;2088063;28;20235;-69
2024/02/24 00:20:27;;;;;;;9.37;5.57;;;;;;;8.39;100.00;100947.25;2088114;28;20245;-69
2024/02/24 00:21:28;;;;;;;12.67;6.93;;;;;;;8.43;100.00;100959.03;2087798;28;20295;-69
2024/02/24 00:22:28;;;;;;;8.57;5.20;;;;;;;8.35;100.00;100952.03;2088502;28;20191;-69
2024/02/24 00:23:29;;;;;;;9.60;5.70;;;;;;;8.20;100.00;100956.88;2086613;28;20206;-69
2024/02/24 00:24:30;;;;;;;10.63;5.77;;;;;;;8.04;100.00;100951.09;2087321;28;20565;-69
2024/02/24 00:25:30;;;;;;;12.03;6.53;;;;;;;7.87;100.00;100962.25;2088001;28;20477;-69
2024/02/24 00:26:31;;;;;;;9.50;6.23;;;;;;;7.66;100.00;100967.94;2088027;28;20226;-69
2024/02/24 00:27:31;;;;;;;7.33;5.07;;;;;;;7.57;100.00;100967.59;2087959;28;20202;-69
2024/02/24 00:28:32;;;;;;;13.63;6.83;;;;;;;7.58;100.00;100969.94;2087905;28;20192;-69
2024/02/24 00:29:32;;;;;;;12.40;6.77;;;;;;;7.41;100.00;100948.78;2087950;28;20187;-69
2024/02/24 00:30:33;;;;;;;14.37;6.23;;;;;;;7.60;100.00;100978.63;2088530;28;20202;-69
2024/02/24 00:31:33;;;;;;;11.50;6.67;;;;;;;7.66;100.00;100982.53;2087707;28;20449;-69
2024/02/24 00:32:34;;;;;;;10.03;5.50;;;;;;;7.59;100.00;100979.03;2087657;28;20271;-69
2024/02/24 00:33:34;;;;;;;9.80;6.70;;;;;;;7.61;100.00;100982.16;2087407;28;20184;-69
2024/02/24 00:34:35;;;;;;;10.83;6.00;;;;;;;7.61;100.00;100993.19;2087305;28;20202;-69
2024/02/24 00:35:35;;;;;;;8.73;5.30;;;;;;;7.09;100.00;100904.09;2087838;28;20525;-69
2024/02/24 00:36:36;;;;;;;6.83;4.27;;;;;;;7.56;100.00;100977.84;2087949;28;20198;-69
2024/02/24 00:37:36;;;;;;;8.20;4.70;;;;;;;7.48;100.00;100975.53;2087623;28;20261;-69
2024/02/24 00:38:36;;;;;;;9.67;5.33;;;;;;;7.49;100.00;100971.59;2088738;28;20190;-69
2024/02/24 00:39:37;;;;;;;8.40;5.37;;;;;;;6.61;100.00;100839.00;2087960;28;20191;-69
2024/02/24 00:40:38;;;;;;;10.53;5.83;;;;;;;7.59;100.00;100982.53;2087865;28;20227;-69
2024/02/24 00:41:38;;;;;;;8.60;4.40;;;;;;;6.35;100.00;100785.22;2087848;28;20449;-69
2024/02/24 00:42:39;;;;;;;7.10;4.30;;;;;;;6.86;100.00;100873.50;2087162;28;20195;-69
2024/02/24 00:43:39;;;;;;;9.37;5.90;;;;;;;7.57;100.00;100984.13;2087823;28;20202;-69
2024/02/24 00:44:40;;;;;;;9.43;5.47;;;;;;;7.53;100.00;100983.41;2087327;28;20191;-69
2024/02/24 00:45:40;;;;;;;15.70;4.97;;;;;;;7.52;100.00;100974.31;2087161;28;20193;-69
2024/02/24 00:46:41;;;;;;;10.47;5.57;;;;;;;7.47;100.00;100974.75;2087456;28;20195;-69
2024/02/24 00:47:42;;;;;;;9.07;5.07;;;;;;;6.37;100.00;100791.13;2088360;28;20280;-69
2024/02/24 00:48:42;;;;;;;7.37;4.97;;;;;;;7.62;100.00;100970.72;2088031;28;20195;-69
2024/02/24 00:49:43;;;;;;;10.30;5.57;;;;;;;7.68;100.00;100963.56;2087809;28;20198;-69
2024/02/24 00:50:43;;;;;;;11.80;5.90;;;;;;;7.65;100.00;100963.59;2095397;28;20684;-69
2024/02/24 00:51:44;;;;;;;13.07;5.30;;;;;;;7.70;100.00;100965.94;2095125;28;20648;-69
2024/02/24 00:52:44;;;;;;;9.87;5.80;;;;;;;7.11;100.00;100874.16;2087044;28;20186;-69
2024/02/24 00:53:45;;;;;;;9.40;4.87;;;;;;;7.84;100.00;100976.88;2087389;28;20241;-69
2024/02/24 00:54:45;;;;;;;8.70;4.70;;;;;;;7.82;100.00;100969.00;2087163;28;20192;-69
2024/02/24 00:55:46;;;;;;;8.97;5.63;;;;;;;7.79;100.00;100972.56;2087507;28;20313;-69
2024/02/24 00:56:46;;;;;;;11.13;5.60;;;;;;;7.81;100.00;100974.91;2078731;28;20200;-69
2024/02/24 00:57:47;;;;;;;9.63;5.07;;;;;;;7.87;100.00;100971.34;2087085;28;20195;-69
2024/02/24 00:58:47;;;;;;;11.40;5.13;;;;;;;7.86;100.00;100968.97;2087731;28;20194;-69
2024/02/24 00:59:48;;;;;;;9.27;5.23;;;;;;;7.83;100.00;100967.00;2087737;28;20255;-69
2024/02/24 01:00:48;;;;;;;8.60;5.00;;;;;;;7.80;100.00;100963.09;2087954;28;20216;-69
2024/02/24 01:01:49;;;;;;;10.50;5.57;;;;;;;7.74;100.00;100955.66;2087254;28;20217;-69
2024/02/24 01:02:49;;;;;;;8.63;4.67;;;;;;;7.71;100.00;100964.75;2087078;28;20186;-69
2024/02/24 01:03:50;;;;;;;8.90;5.10;;;;;;;7.76;100.00;100959.59;2087570;28;20192;-69
2024/02/24 01:04:52;;;;;;;13.53;6.10;;;;;;;7.03;100.00;100842.28;2094309;28;20223;-69
2024/02/24 01:05:52;;;;;;;11.93;5.93;;;;;;;7.95;100.00;100967.31;2095223;28;20198;-69
2024/02/24 01:06:53;;;;;;;10.07;5.80;;;;;;;7.98;100.00;100979.53;2087750;28;20451;-69
2024/02/24 01:07:56;;;;;;;12.57;6.27;;;;;;;7.96;100.00;100973.63;2087675;28;20253;-69
2024/02/24 01:08:56;;;;;;;10.47;6.13;;;;;;;7.86;100.00;100967.00;2087399;28;20181;-69
2024/02/24 01:09:57;;;;;;;11.03;5.83;;;;;;;7.85;100.00;100970.94;2087528;28;20429;-69
2024/02/24 01:10:58;;;;;;;12.27;6.27;;;;;;;7.89;100.00;100963.44;2086622;28;20179;-69
2024/02/24 01:11:58;;;;;;;12.77;7.23;;;;;;;7.92;100.00;100965.38;2087609;28;20181;-69
2024/02/24 01:13:00;;;;;;;14.13;5.70;;;;;;;7.94;100.00;100967.75;2087357;28;20431;-69
2024/02/24 01:14:00;;;;;;;12.10;5.87;;;;;;;7.86;100.00;100964.25;2086983;28;20214;-69
2024/02/24 01:15:01;;;;;;;12.30;6.50;;;;;;;7.90;100.00;100962.22;2087634;28;20446;-69
2024/02/24 01:16:02;;;;;;;14.07;6.27;;;;;;;7.97;100.00;100966.91;2087630;28;20305;-69
2024/02/24 01:17:03;;;;;;;13.10;6.40;;;;;;;8.07;100.00;100960.53;2087030;28;20441;-69
2024/02/24 01:18:04;;;;;;;16.40;7.37;;;;;;;8.11;100.00;100964.06;2087404;28;20458;-69
2024/02/24 01:19:04;;;;;;;10.83;5.73;;;;;;;8.01;100.00;100957.44;2086500;28;20475;-69
2024/02/24 01:20:05;;;;;;;10.07;5.87;;;;;;;8.13;100.00;100970.72;2087605;28;20235;-69
2024/02/24 01:21:06;;;;;;;12.80;6.60;;;;;;;8.17;100.00;100971.50;2088204;28;20204;-69
2024/02/24 01:22:07;;;;;;;10.27;5.87;;;;;;;8.19;100.00;100980.13;2087513;28;20192;-69
2024/02/24 01:23:07;;;;;;;11.77;6.37;;;;;;;8.27;100.00;100965.13;2086721;28;20658;-69
2024/02/24 01:24:08;;;;;;;12.23;6.50;;;;;;;7.42;100.00;100831.00;2086960;28;20922;-69
2024/02/24 01:25:09;;;;;;;8.30;5.63;;;;;;;8.28;100.00;100963.13;2087437;28;20662;-69
2024/02/24 01:26:09;;;;;;;14.03;6.70;;;;;;;8.23;100.00;100958.03;2087433;28;20218;-69
2024/02/24 01:27:09;;;;;;;11.33;6.83;;;;;;;8.23;100.00;100955.28;2087593;28;20188;-69
2024/02/24 01:28:10;;;;;;;17.13;7.27;;;;;;;8.27;100.00;100945.78;2087387;28;20270;-69
2024/02/24 01:29:11;;;;;;;11.10;6.43;;;;;;;8.39;100.00;100956.31;2088321;28;20679;-69
2024/02/24 01:30:11;;;;;;;11.17;6.33;;;;;;;8.45;100.00;100976.78;2087604;28;20200;-69
2024/02/24 01:31:12;;;;;;;11.70;6.53;;;;;;;8.43;100.00;100946.03;2087525;28;20211;-69
2024/02/24 01:32:13;;;;;;;9.53;5.90;;;;;;;8.54;100.00;100949.47;2087530;28;20240;-69
2024/02/24 01:33:13;;;;;;;12.17;6.23;;;;;;;8.57;100.00;100948.63;2086571;28;20195;-69
2024/02/24 01:34:14;;;;;;;11.27;6.37;;;;;;;8.59;100.00;100951.78;2086755;28;20203;-69
2024/02/24 01:35:14;;;;;;;10.53;6.23;;;;;;;8.55;100.00;100951.03;2087638;28;20185;-69
2024/02/24 01:36:15;;;;;;;12.03;6.33;;;;;;;8.51;100.00;100944.75;2087404;28;20184;-69
2024/02/24 01:37:15;;;;;;;11.60;7.17;;;;;;;8.57;100.00;100956.16;2087203;28;20310;-69
2024/02/24 01:38:16;;;;;;;14.43;6.60;;;;;;;8.59;100.00;100949.00;2087587;28;20181;-69
2024/02/24 01:39:16;;;;;;;17.87;6.30;;;;;;;8.65;100.00;100958.41;2087652;28;20203;-69
2024/02/24 01:40:17;;;;;;;9.63;6.27;;;;;;;8.70;100.00;100954.41;2087256;28;20203;-69
2024/02/24 01:41:17;;;;;;;10.43;6.17;;;;;;;8.73;100.00;100961.88;2087472;28;20222;-69
2024/02/24 01:42:18;;;;;;;10.93;7.30;;;;;;;8.79;100.00;100951.94;2087540;28;20193;-69
2024/02/24 01:43:25;;;;;;;11.63;6.53;;;;;;;7.86;100.00;100801.47;2086526;28;20229;-69
2024/02/24 01:44:26;;;;;;;15.40;7.80;;;;;;;8.85;100.00;100962.16;2086668;28;20270;-69
2024/02/24 01:45:26;;;;;;;10.30;6.90;;;;;;;8.87;100.00;100956.22;2087408;28;20965;-69
2024/02/24 01:46:28;;;;;;;14.63;7.40;;;;;;;8.84;100.00;100945.97;2087525;28;20238;-69
2024/02/24 01:47:29;;;;;;;14.40;7.33;;;;;;;7.79;100.00;100782.19;2087955;28;20270;-69
2024/02/24 01:48:32;;;;;;;11.63;6.47;;;;;;;8.95;100.00;100955.72;2087363;28;21170;-69
2024/02/24 01:49:32;;;;;;;16.10;7.80;;;;;;;9.00;100.00;100951.69;2087593;28;20188;-69
2024/02/24 01:50:33;;;;;;;11.73;7.13;;;;;;;8.93;100.00;100949.81;2087541;28;20449;-69
2024/02/24 01:51:34;;;;;;;12.30;8.03;;;;;;;8.89;100.00;100942.75;2086962;28;20267;-69
2024/02/24 01:52:34;;;;;;;11.53;7.47;;;;;;;8.94;100.00;100945.06;2086900;28;20279;-69
2024/02/24 01:53:36;;;;;;;13.50;6.97;;;;;;;9.01;100.00;100953.25;2086992;28;20200;-69
2024/02/24 01:54:37;;;;;;;14.30;7.10;;;;;;;9.04;100.00;100956.00;2086592;28;20650;-69
2024/02/24 01:55:38;;;;;;;9.67;6.60;;;;;;;8.15;100.00;100813.75;2087540;28;20799;-69
2024/02/24 01:56:40;;;;;;;13.23;6.93;;;;;;;8.97;100.00;100944.25;2087561;28;20449;-69
2024/02/24 01:57:45;;;;;;;12.73;7.27;;;;;;;8.93;100.00;100952.59;2087454;28;20641;-69
2024/02/24 01:58:46;;;;;;;15.30;7.73;;;;;;;8.40;100.00;100877.03;2087708;28;20500;-69
2024/02/24 01:59:47;;;;;;;13.97;8.03;;;;;;;8.93;100.00;100952.59;2087350;28;20497;-69
2024/02/24 02:00:47;;;;;;;11.97;6.70;;;;;;;8.98;100.00;100956.88;2087346;28;20521;-69
2024/02/24 02:01:49;;;;;;;13.80;7.37;;;;;;;8.59;100.00;100896.53;2087149;28;20646;-69
2024/02/24 02:02:49;;;;;;;15.23;6.90;;;;;;;8.97;100.00;100960.81;2086592;28;20191;-69
2024/02/24 02:03:52;;;;;;;21.23;7.90;;;;;;;7.96;100.00;100822.66;2086787;28;20426;-69
2024/02/24 02:04:52;;;;;;;12.70;7.47;;;;;;;8.80;100.00;100951.53;2087210;28;20195;-69
2024/02/24 02:05:53;;;;;;;11.73;6.77;;;;;;;8.80;100.00;100951.53;2087886;28;20521;-69
2024/02/24 02:06:54;;;;;;;12.47;8.13;;;;;;;8.74;100.00;100947.66;2087218;28;20198;-69
2024/02/24 02:07:55;;;;;;;14.33;7.47;;;;;;;8.75;100.00;100959.50;2087234;28;21508;-69
2024/02/24 02:08:56;;;;;;;14.50;8.30;;;;;;;8.67;100.00;100956.00;2095233;28;20191;-69
2024/02/24 02:09:58;;;;;;;14.00;7.60;;;;;;;8.72;100.00;100963.84;2094945;28;20649;-69
2024/02/24 02:10:59;;;;;;;13.13;7.40;;;;;;;8.65;100.00;100960.38;2087309;28;20454;-69
2024/02/24 02:11:59;;;;;;;12.10;7.87;;;;;;;8.51;100.00;100968.84;2087372;28;20433;-69
2024/02/24 02:13:00;;;;;;;10.83;7.07;;;;;;;8.43;100.00;100962.59;2086209;28;20195;-69
2024/02/24 02:14:00;;;;;;;13.67;8.37;;;;;;;8.48;100.00;100964.91;2087045;28;20515;-69
2024/02/24 02:15:03;;;;;;;14.50;7.30;;;;;;;8.54;100.00;100968.00;2088089;28;20195;-69
2024/02/24 02:16:04;;;;;;;15.93;7.70;;;;;;;8.58;100.00;100966.78;2087317;28;20188;-69
2024/02/24 02:17:05;;;;;;;12.93;7.17;;;;;;;8.56;100.00;100966.41;2087297;28;20446;-69
2024/02/24 02:18:06;;;;;;;11.60;7.00;;;;;;;8.63;100.00;100977.41;2087224;28;20554;-69
2024/02/24 02:19:06;;;;;;;11.30;6.63;;;;;;;8.67;100.00;100974.59;2087348;28;20955;-69
2024/02/24 02:20:08;;;;;;;14.23;7.83;;;;;;;8.47;100.00;100965.31;2087289;28;20255;-69
2024/02/24 02:21:09;;;;;;;9.43;6.90;;;;;;;8.58;100.00;100966.00;2087364;28;20216;-69
2024/02/24 02:22:13;;;;;;;10.20;6.63;;;;;;;8.53;100.00;100967.25;2086965;28;20431;-69
2024/02/24 02:23:14;;;;;;;16.83;8.07;;;;;;;7.56;100.00;100817.91;2086292;28;20192;-69
2024/02/24 02:24:15;;;;;;;15.70;7.27;;;;;;;8.59;100.00;100978.59;2087245;28;20436;-69
2024/02/24 02:25:16;;;;;;;13.03;6.93;;;;;;;8.65;100.00;100979.72;2086879;28;20194;-69
2024/02/24 02:26:18;;;;;;;11.63;6.90;;;;;;;8.64;100.00;100973.44;2087326;28;20542;-69
2024/02/24 02:27:18;;;;;;;13.00;7.67;;;;;;;8.47;100.00;100949.56;2087300;28;20290;-69
2024/02/24 02:28:19;;;;;;;12.73;6.53;;;;;;;8.34;100.00;100950.44;2087264;28;20977;-69
2024/02/24 02:29:19;;;;;;;12.60;6.70;;;;;;;8.43;100.00;100965.38;2087307;28;20656;-69
2024/02/24 02:30:20;;;;;;;12.20;7.57;;;;;;;8.52;100.00;100973.16;2087206;28;20681;-69
2024/02/24 02:31:20;;;;;;;10.27;6.53;;;;;;;8.60;100.00;100964.38;2088662;28;20271;-69
2024/02/24 02:32:21;;;;;;;11.33;7.10;;;;;;;8.60;100.00;100975.44;2089519;28;20191;-69
2024/02/24 02:33:21;;;;;;;11.07;6.37;;;;;;;8.49;100.00;100965.69;2088163;28;20245;-69
2024/02/24 02:34:22;;;;;;;11.80;6.60;;;;;;;7.72;100.00;100842.19;2088226;28;20195;-69
2024/02/24 02:35:23;;;;;;;11.67;7.13;;;;;;;8.44;100.00;100964.16;2088958;28;20192;-69
2024/02/24 02:36:24;;;;;;;9.83;5.87;;;;;;;8.42;100.00;100961.03;2088789;28;20671;-69
2024/02/24 02:37:24;;;;;;;12.03;6.93;;;;;;;8.43;100.00;100968.13;2088462;28;21027;-69
2024/02/24 02:38:25;;;;;;;11.27;6.23;;;;;;;8.41;100.00;100973.25;2088690;28;20199;-69
2024/02/24 02:39:25;;;;;;;12.17;6.73;;;;;;;8.45;100.00;100962.19;2088747;28;20209;-69
2024/02/24 02:40:26;;;;;;;11.10;6.97;;;;;;;8.45;100.00;100965.72;2089440;28;20196;-69
2024/02/24 02:41:27;;;;;;;12.20;6.57;;;;;;;8.27;100.00;100953.28;2088637;28;20249;-69
2024/02/24 02:42:27;;;;;;;12.10;6.27;;;;;;;8.47;100.00;100966.13;2088539;28;20239;-69
2024/02/24 02:43:28;;;;;;;11.27;6.27;;;;;;;8.42;100.00;100957.47;2088185;28;20276;-69
2024/02/24 02:44:28;;;;;;;12.90;6.53;;;;;;;8.39;100.00;100967.38;2088067;28;20548;-69
2024/02/24 02:45:29;;;;;;;10.37;6.20;;;;;;;8.39;100.00;100975.66;2088746;28;20642;-69
2024/02/24 02:46:29;;;;;;;14.33;6.80;;;;;;;8.39;100.00;100977.63;2088818;28;20190;-69
2024/02/24 02:47:30;;;;;;;9.33;6.13;;;;;;;8.37;100.00;100991.06;2088639;28;20187;-69
2024/02/24 02:48:30;;;;;;;10.23;5.60;;;;;;;8.34;100.00;100994.63;2088630;28;20210;-69
2024/02/24 02:49:31;;;;;;;11.67;5.73;;;;;;;8.31;100.00;100998.22;2089366;28;20190;-69
2024/02/24 02:50:32;;;;;;;9.83;5.57;;;;;;;8.19;100.00;100990.38;2088668;28;20189;-69
2024/02/24 02:51:32;;;;;;;12.43;7.20;;;;;;;8.22;100.00;101000.66;2088480;28;20197;-69
2024/02/24 02:52:33;;;;;;;9.43;4.87;;;;;;;8.21;100.00;100999.88;2088334;28;20201;-69
2024/02/24 02:53:33;;;;;;;12.00;6.37;;;;;;;8.27;100.00;100998.25;2088197;28;20534;-69
2024/02/24 02:54:34;;;;;;;12.70;6.83;;;;;;;8.27;100.00;100997.47;2088079;28;20189;-69
2024/02/24 02:55:35;;;;;;;12.60;5.87;;;;;;;8.23;100.00;100997.50;2088671;28;20207;-69
2024/02/24 02:56:35;;;;;;;14.63;7.07;;;;;;;8.17;100.00;100995.53;2088709;28;20596;-69
2024/02/24 02:57:36;;;;;;;11.87;6.30;;;;;;;8.21;100.00;100999.88;2089233;28;20209;-69
2024/02/24 02:58:37;;;;;;;13.33;6.60;;;;;;;8.02;100.00;100960.97;2088953;28;20191;-69
2024/02/24 02:59:37;;;;;;;11.60;5.77;;;;;;;8.21;100.00;101005.38;2088915;28;20247;-69
2024/02/24 03:00:38;;;;;;;10.70;5.73;;;;;;;8.18;100.00;100997.09;2088763;28;20254;-69
2024/02/24 03:01:38;;;;;;;17.53;6.37;;;;;;;8.16;100.00;101003.03;2088556;28;20221;-69
2024/02/24 03:02:39;;;;;;;9.63;6.13;;;;;;;8.06;100.00;100997.59;2095556;28;20191;-69
2024/02/24 03:03:39;;;;;;;9.00;5.60;;;;;;;8.06;100.00;101011.41;2096087;28;20204;-69
2024/02/24 03:04:40;;;;;;;9.67;6.03;;;;;;;7.96;100.00;101026.06;2087797;28;20656;-69
2024/02/24 03:05:41;;;;;;;12.10;6.47;;;;;;;7.96;100.00;101024.09;2089204;28;20213;-69
2024/02/24 03:06:41;;;;;;;11.53;6.30;;;;;;;7.93;100.00;101011.09;2088554;28;20196;-69
2024/02/24 03:07:42;;;;;;;13.37;7.03;;;;;;;7.47;100.00;100944.41;2088516;28;20262;-69
2024/02/24 03:08:42;;;;;;;11.93;6.13;;;;;;;7.95;100.00;101025.28;2088666;28;20669;-69
2024/02/24 03:09:47;;;;;;;14.77;7.40;;;;;;;7.90;100.00;101022.94;2088661;28;20659;-69
2024/02/24 03:10:47;;;;;;;13.77;7.05;;;;;;;7.92;100.00;101025.31;2088482;28;20200;-69
2024/02/24 03:11:48;;;;;;;10.30;6.60;;;;;;;7.07;100.00;100895.41;2087451;28;20184;-69
2024/02/24 03:12:48;;;;;;;9.73;5.57;;;;;;;7.87;100.00;101017.44;2085835;28;20223;-69
2024/02/24 03:13:49;;;;;;;12.97;5.30;;;;;;;7.61;100.00;100971.91;2087886;28;20188;-69
2024/02/24 03:14:50;;;;;;;12.27;7.37;;;;;;;7.77;100.00;101001.75;2088348;28;20225;-69
2024/02/24 03:15:50;;;;;;;12.87;7.43;;;;;;;7.77;100.00;101007.25;2088283;28;20206;-69
2024/02/24 03:16:53;;;;;;;13.90;7.17;;;;;;;7.86;100.00;101027.72;2088286;28;20204;-69
2024/02/24 03:17:54;;;;;;;10.70;5.75;;;;;;;7.86;100.00;101035.19;2095411;28;20259;-69
2024/02/24 03:18:54;;;;;;;8.83;5.43;;;;;;;7.82;100.00;101037.19;2096190;28;20188;-69
2024/02/24 03:19:55;;;;;;;12.13;5.70;;;;;;;7.84;100.00;101041.13;2088413;28;20231;-69
2024/02/24 03:20:55;;;;;;;9.67;5.23;;;;;;;7.77;100.00;101043.94;2088318;28;20181;-69
2024/02/24 03:21:57;;;;;;;10.30;4.83;;;;;;;7.64;100.00;101025.47;2088278;28;20195;-69
2024/02/24 03:22:57;;;;;;;7.75;5.63;;;;;;;7.22;100.00;100965.81;2088269;28;20183;-69
2024/02/24 03:24:01;;;;;;;11.00;5.90;;;;;;;7.68;100.00;101042.81;2087850;28;20192;-69
2024/02/24 03:25:02;;;;;;;10.38;5.80;;;;;;;7.66;100.00;101045.16;2088514;28;20193;-69
2024/02/24 03:26:03;;;;;;;12.33;5.63;;;;;;;7.60;100.00;101033.00;2088715;28;20634;-69
2024/02/24 03:27:03;;;;;;;11.23;5.57;;;;;;;7.33;100.00;100996.09;2087495;28;20196;-69
2024/02/24 03:28:04;;;;;;;9.97;6.00;;;;;;;7.57;100.00;101044.81;2088668;28;20200;-69
2024/02/24 03:29:04;;;;;;;11.87;4.87;;;;;;;7.56;100.00;101049.56;2088578;28;20647;-69
2024/02/24 03:30:06;;;;;;;13.63;6.43;;;;;;;7.52;100.00;101051.53;2088510;28;20245;-69
2024/02/24 03:31:06;;;;;;;10.88;5.18;;;;;;;7.53;100.00;101061.38;2088217;28;20181;-69
2024/02/24 03:32:07;;;;;;;8.90;5.40;;;;;;;7.52;100.00;101056.25;2088995;28;20265;-69
2024/02/24 03:33:07;;;;;;;9.50;5.07;;;;;;;7.41;100.00;101045.28;2087661;28;20654;-69
2024/02/24 03:34:08;;;;;;;10.07;5.10;;;;;;;7.37;100.00;101052.78;2087797;28;20203;-69
2024/02/24 03:35:08;;;;;;;10.80;6.17;;;;;;;7.34;100.00;101045.31;2088631;28;20200;-69
2024/02/24 03:36:16;;;;;;;10.87;5.40;;;;;;;7.43;100.00;101058.69;2088435;28;20206;-69
2024/02/24 03:37:17;;;;;;;7.43;5.03;;;;;;;7.40;100.00;101056.72;2088232;28;20292;-69
2024/02/24 03:38:17;;;;;;;10.03;5.50;;;;;;;7.41;100.00;101047.25;2088285;28;20261;-69
2024/02/24 03:39:21;;;;;;;14.30;5.60;;;;;;;7.39;100.00;101044.13;2088247;28;20570;-69
2024/02/24 03:40:22;;;;;;;9.20;5.53;;;;;;;7.01;100.00;100968.66;2088291;28;20189;-69
2024/02/24 03:41:22;;;;;;;11.53;6.57;;;;;;;6.57;100.00;100904.31;2088192;28;20200;-69
2024/02/24 03:42:23;;;;;;;11.50;6.70;;;;;;;7.43;100.00;101045.66;2088181;28;20195;-69
2024/02/24 03:43:23;;;;;;;9.13;4.83;;;;;;;7.48;100.00;101036.97;2087597;28;20727;-69
2024/02/24 03:44:24;;;;;;;12.47;4.87;;;;;;;7.52;100.00;101051.53;2087709;28;20200;-69
2024/02/24 03:45:24;;;;;;;9.70;5.57;;;;;;;7.52;100.00;101050.75;2095925;28;20192;-69
2024/02/24 03:46:25;;;;;;;10.13;5.03;;;;;;;7.51;100.00;101055.50;2095938;28;20277;-69
2024/02/24 03:47:25;;;;;;;10.17;5.97;;;;;;;7.30;100.00;101029.97;2088341;28;20237;-69
2024/02/24 03:48:26;;;;;;;11.07;6.23;;;;;;;7.57;100.00;101069.63;2088233;28;20189;-69
2024/02/24 03:49:27;;;;;;;9.00;5.37;;;;;;;7.61;100.00;101070.41;2088039;28;20194;-69
2024/02/24 03:50:27;;;;;;;12.10;5.63;;;;;;;7.60;100.00;101071.59;2088522;28;20181;-69
2024/02/24 03:51:28;;;;;;;10.63;5.73;;;;;;;7.57;100.00;101059.41;2088265;28;20271;-69
2024/02/24 03:52:28;;;;;;;10.60;6.27;;;;;;;7.67;100.00;101066.03;2088091;28;20271;-69
2024/02/24 03:53:29;;;;;;;7.87;5.87;;;;;;;7.72;100.00;101074.69;2087691;28;20198;-69
2024/02/24 03:54:29;;;;;;;8.63;6.03;;;;;;;7.79;100.00;101073.88;2087640;28;20188;-69
2024/02/24 03:55:30;;;;;;;13.83;5.87;;;;;;;7.81;100.00;101074.25;2088298;28;20656;-69
2024/02/24 03:56:30;;;;;;;12.60;6.23;;;;;;;7.11;100.00;100962.34;2095735;28;20183;-69
2024/02/24 03:57:31;;;;;;;11.97;5.67;;;;;;;6.96;100.00;100922.25;2095782;28;20203;-69
2024/02/24 03:58:31;;;;;;;13.87;6.13;;;;;;;7.76;100.00;101058.13;2088814;28;20223;-69
2024/02/24 03:59:32;;;;;;;13.20;6.27;;;;;;;7.75;100.00;101059.31;2087520;28;20633;-69
2024/02/24 04:00:34;;;;;;;15.57;6.67;;;;;;;7.81;100.00;101057.69;2088384;28;20252;-69
2024/02/24 04:01:35;;;;;;;13.10;7.20;;;;;;;7.90;100.00;101056.06;2094576;28;20215;-69
2024/02/24 04:02:35;;;;;;;10.20;6.03;;;;;;;7.90;100.00;101058.81;2095267;28;20432;-69
2024/02/24 04:03:36;;;;;;;10.57;5.40;;;;;;;7.47;100.00;100990.50;2087980;28;20274;-69
2024/02/24 04:04:36;;;;;;;11.17;5.20;;;;;;;8.03;100.00;101072.94;2087529;28;20191;-69
2024/02/24 04:05:37;;;;;;;10.67;6.00;;;;;;;7.27;100.00;100937.84;2087974;28;20716;-69
2024/02/24 04:06:38;;;;;;;8.87;5.07;;;;;;;8.08;100.00;101067.78;2088763;28;20191;-69
2024/02/24 04:07:38;;;;;;;9.70;5.13;;;;;;;8.08;100.00;101070.53;2088016;28;20184;-69
2024/02/24 04:08:39;;;;;;;9.93;5.23;;;;;;;8.07;100.00;101077.25;2088229;28;20642;-69
2024/02/24 04:09:40;;;;;;;8.57;5.37;;;;;;;7.16;100.00;100930.81;2086841;28;20187;-69
2024/02/24 04:10:43;;;;;;;9.37;5.23;;;;;;;7.91;100.00;101074.19;2088086;28;20190;-69
2024/02/24 04:11:43;;;;;;;10.93;5.67;;;;;;;7.96;100.00;101078.50;2087874;28;20451;-69
2024/02/24 04:12:44;;;;;;;11.10;6.00;;;;;;;7.96;100.00;101073.78;2087277;28;20943;-69
2024/02/24 04:13:44;;;;;;;11.67;5.97;;;;;;;7.66;100.00;101026.66;2087732;28;20191;-69
2024/02/24 04:14:45;;;;;;;11.83;6.87;;;;;;;7.81;100.00;101050.22;2087336;28;20190;-69
2024/02/24 04:15:47;;;;;;;11.37;6.93;;;;;;;7.95;100.00;101065.91;2087830;28;20279;-69
2024/02/24 04:16:47;;;;;;;13.30;6.88;;;;;;;7.90;100.00;101067.09;2087023;28;20191;-69
2024/02/24 04:17:49;;;;;;;12.23;6.67;;;;;;;7.96;100.00;101078.50;2087991;28;20652;-69
2024/02/24 04:18:49;;;;;;;12.97;7.73;;;;;;;8.04;100.00;101077.28;2088271;28;20198;-69
2024/02/24 04:19:50;;;;;;;13.77;7.77;;;;;;;7.79;100.00;101038.00;2088016;28;20962;-69
2024/02/24 04:20:50;;;;;;;15.27;7.33;;;;;;;7.10;100.00;100951.69;2088242;28;20203;-69
2024/02/24 04:21:51;;;;;;;11.83;7.40;;;;;;;7.23;100.00;100947.31;2087846;28;20186;-69
2024/02/24 04:22:51;;;;;;;13.50;6.67;;;;;;;8.02;100.00;101074.13;2087180;28;20274;-69
2024/02/24 04:23:52;;;;;;;9.63;6.33;;;;;;;8.09;100.00;101087.91;2087903;28;20179;-69
2024/02/24 04:24:52;;;;;;;10.77;6.13;;;;;;;7.81;100.00;101052.19;2088134;28;20647;-69
2024/02/24 04:25:53;;;;;;;11.83;6.60;;;;;;;8.13;100.00;101092.19;2087731;28;20270;-69
2024/02/24 04:26:53;;;;;;;15.73;7.60;;;;;;;7.51;100.00;100986.56;2088183;28;20257;-69
2024/02/24 04:27:54;;;;;;;11.50;6.63;;;;;;;8.24;100.00;101090.16;2087927;28;20197;-69
2024/02/24 04:28:55;;;;;;;12.93;7.00;;;;;;;8.19;100.00;101095.28;2087946;28;20196;-69
2024/02/24 04:29:55;;;;;;;10.27;6.30;;;;;;;8.17;100.00;101092.97;2087898;28;20652;-69
2024/02/24 04:30:55;;;;;;;13.37;6.57;;;;;;;8.05;100.00;101092.66;2087843;28;20710;-69
2024/02/24 04:31:56;;;;;;;11.83;6.67;;;;;;;8.19;100.00;101107.13;2096116;28;20230;-69
2024/02/24 04:32:57;;;;;;;9.47;5.80;;;;;;;8.25;100.00;101104.78;2095051;28;20203;-69
2024/02/24 04:33:57;;;;;;;11.20;6.20;;;;;;;8.26;100.00;101103.56;2087491;28;20656;-69
2024/02/24 04:34:58;;;;;;;9.77;5.63;;;;;;;8.26;100.00;101098.06;2088126;28;20218;-69
2024/02/24 04:35:59;;;;;;;11.57;6.13;;;;;;;7.98;100.00;101073.34;2088153;28;20249;-69
2024/02/24 04:36:59;;;;;;;8.83;6.00;;;;;;;8.18;100.00;101089.00;2087595;28;20358;-69
2024/02/24 04:38:05;;;;;;;10.27;5.83;;;;;;;8.21;100.00;101090.97;2087877;28;20176;-69
2024/02/24 04:39:06;;;;;;;13.45;5.10;;;;;;;8.25;100.00;101088.97;2088127;28;20608;-69
2024/02/24 04:40:07;;;;;;;11.80;6.23;;;;;;;8.30;100.00;101094.06;2087856;28;20265;-69